Terminal Aerodrome Forecast
Issued by NWS

Home | Current Version | Previous Version | Text Only | Print | Product List | Glossary On
Versions: 1 2 3 4 5 6 7 8 9 10 11 12 13 14 15 16 17 18 19 20 21 22 23 24 25 26 27 28 29 30 31 32 33
000
FTUS45 KREV 300405 AAA
TAFTRK
TAF AMD
KTRK 300405Z 3004/3024 30010KT P6SM VCSH SCT025 OVC045
      TEMPO 3004/3006 4SM -SHRASN SCT015 OVC025
     FM301300 18007KT P6SM VCSH SCT015 OVC025
     FM302100 04006KT P6SM SCT030=

USA.gov is the U.S. government's official web portal to all federal, state and local government web resources and services.